CheckWX is a tool to help pilots better visualize weather data.  It is not intended as a substitute for an official pre-flight weather briefing.

17:28:15 UTC

LGZA TAF
Dionysios Solomos Airport
Zakynthos Island, Greece
TAF LGZA 241400Z 2415/2424 33010KT 9999 FEW020

Mar-24@
15:00 UTC

Mar-24 @ 15:00 UTC

Mar-25@
00:00 UTC

Mar-25 @ 00:00 UTC

TAF LGZA 241400Z 2415/2424 33010KT 9999 FEW020
Wind
  • 330° at 10 KTS
Cloud Levels
  • Few at 2,000' AGL